Terminal Aerodrome Forecast
Issued by NWS Norman, OK

Home | Current Version | Previous Version | Text Only | Print | Product List | Glossary On
Versions: 1 2 3 4 5 6 7 8 9 10 11 12 13 14 15
000
FTUS44 KOUN 240537
TAFOKC
TAF
KOKC 240537Z 2406/2506 14015G25KT P6SM SCT050 OVC100
      TEMPO 2406/2408 5SM -TSRA BKN050CB
     FM241000 16016G27KT P6SM BKN015
     FM241600 33024G35KT P6SM SCT025 BKN250
     FM250000 32010KT P6SM SKC=

USA.gov is the U.S. government's official web portal to all federal, state and local government web resources and services.